sensor_id;sensor_type;location;lat;lon;timestamp;pressure;altitude;pressure_sealevel;temperature;humidity
26531;BME280;14201;43.188;24.160;2023-07-13T00:02:07;99558.66;;;27.01;73.02
26531;BME280;14201;43.188;24.160;2023-07-13T00:04:33;99550.69;;;26.99;72.89
26531;BME280;14201;43.188;24.160;2023-07-13T00:06:58;99560.22;;;27.08;72.23
26531;BME280;14201;43.188;24.160;2023-07-13T00:09:24;99558.66;;;27.01;72.31
26531;BME280;14201;43.188;24.160;2023-07-13T00:11:55;99556.06;;;26.98;72.25
26531;BME280;14201;43.188;24.160;2023-07-13T00:14:22;99557.91;;;26.96;72.10
26531;BME280;14201;43.188;24.160;2023-07-13T00:16:48;99561.38;;;26.99;71.94
26531;BME280;14201;43.188;24.160;2023-07-13T00:19:14;99553.59;;;26.90;72.13
26531;BME280;14201;43.188;24.160;2023-07-13T00:21:41;99552.69;;;26.91;72.27
26531;BME280;14201;43.188;24.160;2023-07-13T00:24:08;99553.31;;;27.01;71.79
26531;BME280;14201;43.188;24.160;2023-07-13T00:26:38;99546.22;;;26.98;71.66
26531;BME280;14201;43.188;24.160;2023-07-13T00:29:04;99543.66;;;26.95;71.65
26531;BME280;14201;43.188;24.160;2023-07-13T00:31:31;99538.34;;;26.94;71.58
26531;BME280;14201;43.188;24.160;2023-07-13T00:33:57;99542.22;;;26.82;71.97
26531;BME280;14201;43.188;24.160;2023-07-13T00:36:22;99537.75;;;26.82;71.79
26531;BME280;14201;43.188;24.160;2023-07-13T00:38:48;99536.88;;;26.82;71.76
26531;BME280;14201;43.188;24.160;2023-07-13T00:41:14;99528.91;;;26.79;71.77
26531;BME280;14201;43.188;24.160;2023-07-13T00:43:40;99530.03;;;26.71;71.95
26531;BME280;14201;43.188;24.160;2023-07-13T00:46:27;99540.84;;;26.65;72.16
26531;BME280;14201;43.188;24.160;2023-07-13T00:48:55;99530.38;;;26.56;72.18
26531;BME280;14201;43.188;24.160;2023-07-13T00:51:30;99536.56;;;26.58;71.90
26531;BME280;14201;43.188;24.160;2023-07-13T00:53:59;99544.50;;;26.61;71.57
26531;BME280;14201;43.188;24.160;2023-07-13T00:56:26;99534.91;;;26.52;71.80
26531;BME280;14201;43.188;24.160;2023-07-13T00:58:53;99533.25;;;26.47;72.09
26531;BME280;14201;43.188;24.160;2023-07-13T01:01:19;99532.44;;;26.45;72.16
26531;BME280;14201;43.188;24.160;2023-07-13T01:03:44;99528.13;;;26.38;72.39
26531;BME280;14201;43.188;24.160;2023-07-13T01:06:11;99530.69;;;26.42;71.99
26531;BME280;14201;43.188;24.160;2023-07-13T01:08:37;99531.78;;;26.35;72.35
26531;BME280;14201;43.188;24.160;2023-07-13T01:11:04;99530.03;;;26.32;72.18
26531;BME280;14201;43.188;24.160;2023-07-13T01:13:31;99523.63;;;26.40;71.94
26531;BME280;14201;43.188;24.160;2023-07-13T01:15:58;99521.91;;;26.39;71.60
26531;BME280;14201;43.188;24.160;2023-07-13T01:18:28;99522.00;;;26.32;71.87
26531;BME280;14201;43.188;24.160;2023-07-13T01:20:59;99516.03;;;26.23;72.16
26531;BME280;14201;43.188;24.160;2023-07-13T01:23:27;99517.84;;;26.21;72.56
26531;BME280;14201;43.188;24.160;2023-07-13T01:25:53;99523.44;;;26.11;72.75
26531;BME280;14201;43.188;24.160;2023-07-13T01:28:21;99525.16;;;26.12;72.37
26531;BME280;14201;43.188;24.160;2023-07-13T01:30:47;99525.13;;;26.16;72.24
26531;BME280;14201;43.188;24.160;2023-07-13T01:33:15;99526.00;;;26.15;72.40
26531;BME280;14201;43.188;24.160;2023-07-13T01:35:41;99525.25;;;26.09;72.68
26531;BME280;14201;43.188;24.160;2023-07-13T01:38:07;99520.97;;;26.02;72.83
26531;BME280;14201;43.188;24.160;2023-07-13T01:40:34;99516.47;;;26.04;72.78
26531;BME280;14201;43.188;24.160;2023-07-13T01:43:00;99515.66;;;26.01;72.58
26531;BME280;14201;43.188;24.160;2023-07-13T01:45:26;99521.84;;;26.03;72.73
26531;BME280;14201;43.188;24.160;2023-07-13T01:47:51;99519.22;;;26.00;72.74
26531;BME280;14201;43.188;24.160;2023-07-13T01:50:17;99525.53;;;25.97;72.81
26531;BME280;14201;43.188;24.160;2023-07-13T01:52:43;99521.00;;;26.01;72.69
26531;BME280;14201;43.188;24.160;2023-07-13T01:55:09;99512.13;;;25.99;72.82
26531;BME280;14201;43.188;24.160;2023-07-13T01:57:34;99521.16;;;25.93;72.84
26531;BME280;14201;43.188;24.160;2023-07-13T02:00:03;99527.47;;;25.89;72.48
26531;BME280;14201;43.188;24.160;2023-07-13T02:02:30;99523.25;;;25.79;72.95
26531;BME280;14201;43.188;24.160;2023-07-13T02:04:56;99521.50;;;25.76;72.99
26531;BME280;14201;43.188;24.160;2023-07-13T02:07:21;99517.13;;;25.73;73.07
26531;BME280;14201;43.188;24.160;2023-07-13T02:09:48;99520.75;;;25.71;72.89
26531;BME280;14201;43.188;24.160;2023-07-13T02:12:13;99519.91;;;25.69;72.67
26531;BME280;14201;43.188;24.160;2023-07-13T02:14:39;99515.47;;;25.68;72.58
26531;BME280;14201;43.188;24.160;2023-07-13T02:17:05;99522.47;;;25.72;72.38
26531;BME280;14201;43.188;24.160;2023-07-13T02:19:31;99516.50;;;25.61;72.54
26531;BME280;14201;43.188;24.160;2023-07-13T02:21:57;99519.22;;;25.59;72.56
26531;BME280;14201;43.188;24.160;2023-07-13T02:24:23;99522.09;;;25.48;72.70
26531;BME280;14201;43.188;24.160;2023-07-13T02:26:48;99526.59;;;25.45;72.56
26531;BME280;14201;43.188;24.160;2023-07-13T02:29:14;99524.97;;;25.38;72.82
26531;BME280;14201;43.188;24.160;2023-07-13T02:31:40;99527.59;;;25.39;72.87
26531;BME280;14201;43.188;24.160;2023-07-13T02:34:05;99522.28;;;25.39;72.83
26531;BME280;14201;43.188;24.160;2023-07-13T02:36:31;99527.72;;;25.33;72.81
26531;BME280;14201;43.188;24.160;2023-07-13T02:39:02;99529.69;;;25.23;73.26
26531;BME280;14201;43.188;24.160;2023-07-13T02:41:28;99535.84;;;25.28;73.15
26531;BME280;14201;43.188;24.160;2023-07-13T02:43:54;99530.56;;;25.25;73.26
26531;BME280;14201;43.188;24.160;2023-07-13T02:46:29;99531.50;;;25.23;73.20
26531;BME280;14201;43.188;24.160;2023-07-13T02:48:54;99535.00;;;25.25;73.17
26531;BME280;14201;43.188;24.160;2023-07-13T02:51:20;99537.78;;;25.19;72.94
26531;BME280;14201;43.188;24.160;2023-07-13T02:53:45;99535.91;;;25.24;73.17
26531;BME280;14201;43.188;24.160;2023-07-13T02:56:11;99538.44;;;25.30;72.72
26531;BME280;14201;43.188;24.160;2023-07-13T02:58:37;99534.19;;;25.20;73.11
26531;BME280;14201;43.188;24.160;2023-07-13T03:01:08;99531.50;;;25.21;72.93
26531;BME280;14201;43.188;24.160;2023-07-13T03:03:34;99542.13;;;25.24;72.92
26531;BME280;14201;43.188;24.160;2023-07-13T03:06:01;99538.50;;;25.28;72.33
26531;BME280;14201;43.188;24.160;2023-07-13T03:08:27;99536.72;;;25.27;72.62
26531;BME280;14201;43.188;24.160;2023-07-13T03:11:08;99533.19;;;25.27;72.58
26531;BME280;14201;43.188;24.160;2023-07-13T03:13:37;99533.28;;;25.21;72.86
26531;BME280;14201;43.188;24.160;2023-07-13T03:16:04;99536.00;;;25.16;72.86
26531;BME280;14201;43.188;24.160;2023-07-13T03:18:29;99533.22;;;25.25;72.74
26531;BME280;14201;43.188;24.160;2023-07-13T03:20:55;99538.41;;;25.33;72.15
26531;BME280;14201;43.188;24.160;2023-07-13T03:23:21;99542.00;;;25.32;72.33
26531;BME280;14201;43.188;24.160;2023-07-13T03:25:48;99544.72;;;25.27;72.35
26531;BME280;14201;43.188;24.160;2023-07-13T03:28:14;99547.22;;;25.37;72.06
26531;BME280;14201;43.188;24.160;2023-07-13T03:30:40;99546.22;;;25.42;71.73
26531;BME280;14201;43.188;24.160;2023-07-13T03:33:06;99547.94;;;25.45;71.85
26531;BME280;14201;43.188;24.160;2023-07-13T03:35:32;99542.53;;;25.49;71.79
26531;BME280;14201;43.188;24.160;2023-07-13T03:37:59;99547.88;;;25.49;71.74
26531;BME280;14201;43.188;24.160;2023-07-13T03:40:25;99552.31;;;25.47;72.09
26531;BME280;14201;43.188;24.160;2023-07-13T03:42:52;99551.41;;;25.50;71.78
26531;BME280;14201;43.188;24.160;2023-07-13T03:45:18;99558.41;;;25.56;72.28
26531;BME280;14201;43.188;24.160;2023-07-13T03:47:43;99558.28;;;25.62;72.19
26531;BME280;14201;43.188;24.160;2023-07-13T03:50:09;99556.31;;;25.70;71.95
26531;BME280;14201;43.188;24.160;2023-07-13T03:52:35;99561.63;;;25.71;71.54
26531;BME280;14201;43.188;24.160;2023-07-13T03:55:01;99555.94;;;25.88;70.96
26531;BME280;14201;43.188;24.160;2023-07-13T03:57:26;99554.72;;;26.05;69.37
26531;BME280;14201;43.188;24.160;2023-07-13T03:59:52;99554.72;;;26.05;69.73
26531;BME280;14201;43.188;24.160;2023-07-13T04:02:18;99553.75;;;26.07;68.92
26531;BME280;14201;43.188;24.160;2023-07-13T04:04:44;99549.97;;;26.19;68.17
26531;BME280;14201;43.188;24.160;2023-07-13T04:07:09;99556.03;;;26.24;68.14
26531;BME280;14201;43.188;24.160;2023-07-13T04:09:35;99549.00;;;26.22;68.27
26531;BME280;14201;43.188;24.160;2023-07-13T04:12:01;99557.19;;;26.14;69.13
26531;BME280;14201;43.188;24.160;2023-07-13T04:14:27;99561.53;;;26.18;69.19
26531;BME280;14201;43.188;24.160;2023-07-13T04:16:52;99561.19;;;26.33;69.68
26531;BME280;14201;43.188;24.160;2023-07-13T04:19:19;99555.47;;;26.49;69.46
26531;BME280;14201;43.188;24.160;2023-07-13T04:21:45;99552.69;;;26.53;68.12
26531;BME280;14201;43.188;24.160;2023-07-13T04:24:11;99558.63;;;26.66;68.00
26531;BME280;14201;43.188;24.160;2023-07-13T04:26:36;99561.34;;;26.65;67.47
26531;BME280;14201;43.188;24.160;2023-07-13T04:29:04;99552.09;;;26.78;67.21
26531;BME280;14201;43.188;24.160;2023-07-13T04:31:30;99565.25;;;26.87;67.15
26531;BME280;14201;43.188;24.160;2023-07-13T04:33:56;99566.47;;;27.08;67.45
26531;BME280;14201;43.188;24.160;2023-07-13T04:36:22;99567.34;;;27.09;66.73
26531;BME280;14201;43.188;24.160;2023-07-13T04:38:47;99578.69;;;27.19;65.93
26531;BME280;14201;43.188;24.160;2023-07-13T04:41:14;99578.56;;;27.22;65.33
26531;BME280;14201;43.188;24.160;2023-07-13T04:43:41;99584.91;;;27.19;65.88
26531;BME280;14201;43.188;24.160;2023-07-13T04:46:09;99572.91;;;27.36;66.35
26531;BME280;14201;43.188;24.160;2023-07-13T04:48:36;99572.78;;;27.40;66.77
26531;BME280;14201;43.188;24.160;2023-07-13T04:51:02;99567.34;;;27.43;66.16
26531;BME280;14201;43.188;24.160;2023-07-13T04:53:29;99569.19;;;27.41;66.02
26531;BME280;14201;43.188;24.160;2023-07-13T04:55:55;99570.28;;;27.34;66.32
26531;BME280;14201;43.188;24.160;2023-07-13T04:58:22;99569.84;;;27.49;67.21
26531;BME280;14201;43.188;24.160;2023-07-13T05:00:48;99574.56;;;27.71;66.22
26531;BME280;14201;43.188;24.160;2023-07-13T05:03:14;99567.03;;;27.84;65.04
26531;BME280;14201;43.188;24.160;2023-07-13T05:05:39;99570.22;;;27.98;66.68
26531;BME280;14201;43.188;24.160;2023-07-13T05:08:05;99566.69;;;27.98;65.05
26531;BME280;14201;43.188;24.160;2023-07-13T05:10:30;99569.81;;;28.12;65.25
26531;BME280;14201;43.188;24.160;2023-07-13T05:12:56;99571.16;;;28.27;65.22
26531;BME280;14201;43.188;24.160;2023-07-13T05:15:22;99572.31;;;28.46;64.05
26531;BME280;14201;43.188;24.160;2023-07-13T05:17:49;99576.69;;;28.49;64.03
26531;BME280;14201;43.188;24.160;2023-07-13T05:20:15;99578.81;;;28.67;63.02
26531;BME280;14201;43.188;24.160;2023-07-13T05:22:42;99583.84;;;28.77;62.32
26531;BME280;14201;43.188;24.160;2023-07-13T05:25:08;99581.63;;;28.90;62.44
26531;BME280;14201;43.188;24.160;2023-07-13T05:27:35;99591.56;;;29.14;61.79
26531;BME280;14201;43.188;24.160;2023-07-13T05:30:02;99589.25;;;29.29;61.94
26531;BME280;14201;43.188;24.160;2023-07-13T05:32:28;99589.16;;;29.57;63.03
26531;BME280;14201;43.188;24.160;2023-07-13T05:34:54;99586.88;;;29.70;61.75
26531;BME280;14201;43.188;24.160;2023-07-13T05:37:20;99589.06;;;29.83;61.25
26531;BME280;14201;43.188;24.160;2023-07-13T05:39:45;99596.78;;;29.93;57.49
26531;BME280;14201;43.188;24.160;2023-07-13T05:42:11;99590.31;;;29.98;57.28
26531;BME280;14201;43.188;24.160;2023-07-13T05:44:36;99595.28;;;30.09;56.93
26531;BME280;14201;43.188;24.160;2023-07-13T05:47:02;99601.31;;;30.14;56.65
26531;BME280;14201;43.188;24.160;2023-07-13T05:49:27;99600.44;;;30.37;57.07
26531;BME280;14201;43.188;24.160;2023-07-13T05:51:54;99602.66;;;30.72;58.87
26531;BME280;14201;43.188;24.160;2023-07-13T05:54:19;99617.13;;;30.91;56.43
26531;BME280;14201;43.188;24.160;2023-07-13T05:56:45;99623.13;;;31.18;54.74
26531;BME280;14201;43.188;24.160;2023-07-13T05:59:10;99629.13;;;31.47;56.13
26531;BME280;14201;43.188;24.160;2023-07-13T06:01:36;99627.28;;;31.68;53.46
26531;BME280;14201;43.188;24.160;2023-07-13T06:04:01;99627.84;;;31.95;53.00
26531;BME280;14201;43.188;24.160;2023-07-13T06:06:27;99621.03;;;32.07;54.29
26531;BME280;14201;43.188;24.160;2023-07-13T06:08:52;99619.34;;;32.05;50.13
26531;BME280;14201;43.188;24.160;2023-07-13T06:11:22;99621.03;;;32.07;50.58
26531;BME280;14201;43.188;24.160;2023-07-13T06:13:48;99627.06;;;32.50;49.13
26531;BME280;14201;43.188;24.160;2023-07-13T06:16:13;99627.06;;;32.88;49.28
26531;BME280;14201;43.188;24.160;2023-07-13T06:18:39;99629.16;;;33.18;50.76
26531;BME280;14201;43.188;24.160;2023-07-13T06:21:09;99634.88;;;33.47;49.52
26531;BME280;14201;43.188;24.160;2023-07-13T06:23:35;99630.34;;;33.65;47.82
26531;BME280;14201;43.188;24.160;2023-07-13T06:26:01;99635.47;;;33.87;48.10
26531;BME280;14201;43.188;24.160;2023-07-13T06:28:30;99636.84;;;34.11;47.88
26531;BME280;14201;43.188;24.160;2023-07-13T06:30:58;99639.50;;;34.29;48.47
26531;BME280;14201;43.188;24.160;2023-07-13T06:33:24;99633.16;;;34.46;48.27
26531;BME280;14201;43.188;24.160;2023-07-13T06:35:50;99624.16;;;34.45;46.47
26531;BME280;14201;43.188;24.160;2023-07-13T06:38:16;99629.94;;;34.55;46.98
26531;BME280;14201;43.188;24.160;2023-07-13T06:40:41;99632.72;;;34.69;47.18
26531;BME280;14201;43.188;24.160;2023-07-13T06:43:07;99621.81;;;34.71;45.42
26531;BME280;14201;43.188;24.160;2023-07-13T06:45:40;99621.44;;;34.93;45.52
26531;BME280;14201;43.188;24.160;2023-07-13T06:48:06;99606.84;;;34.96;44.23
26531;BME280;14201;43.188;24.160;2023-07-13T06:50:33;99625.00;;;35.09;44.09
26531;BME280;14201;43.188;24.160;2023-07-13T06:52:59;99611.41;;;35.25;44.60
26531;BME280;14201;43.188;24.160;2023-07-13T06:55:25;99619.47;;;35.41;48.00
26531;BME280;14201;43.188;24.160;2023-07-13T06:57:50;99618.63;;;35.55;43.37
26531;BME280;14201;43.188;24.160;2023-07-13T07:00:16;99620.66;;;35.52;44.52
26531;BME280;14201;43.188;24.160;2023-07-13T07:02:42;99609.94;;;35.64;45.29
26531;BME280;14201;43.188;24.160;2023-07-13T07:05:08;99605.59;;;35.62;42.71
26531;BME280;14201;43.188;24.160;2023-07-13T07:07:34;99607.13;;;35.66;41.07
26531;BME280;14201;43.188;24.160;2023-07-13T07:10:00;99608.16;;;35.63;42.83
26531;BME280;14201;43.188;24.160;2023-07-13T07:12:27;99608.91;;;35.81;41.69
26531;BME280;14201;43.188;24.160;2023-07-13T07:14:53;99600.50;;;36.00;43.85
26531;BME280;14201;43.188;24.160;2023-07-13T07:17:18;99605.78;;;36.31;40.77
26531;BME280;14201;43.188;24.160;2023-07-13T07:19:44;99603.16;;;36.43;42.77
26531;BME280;14201;43.188;24.160;2023-07-13T07:22:09;99603.66;;;36.36;40.89
26531;BME280;14201;43.188;24.160;2023-07-13T07:24:35;99595.19;;;36.55;40.09
26531;BME280;14201;43.188;24.160;2023-07-13T07:27:01;99588.47;;;36.60;39.26
26531;BME280;14201;43.188;24.160;2023-07-13T07:29:27;99592.16;;;36.59;39.91
26531;BME280;14201;43.188;24.160;2023-07-13T07:31:53;99590.28;;;36.74;39.54
26531;BME280;14201;43.188;24.160;2023-07-13T07:34:19;99587.69;;;36.85;38.16
26531;BME280;14201;43.188;24.160;2023-07-13T07:36:44;99582.41;;;36.97;35.11
26531;BME280;14201;43.188;24.160;2023-07-13T07:39:10;99585.03;;;37.38;35.40
26531;BME280;14201;43.188;24.160;2023-07-13T07:41:37;99586.84;;;37.38;34.93
26531;BME280;14201;43.188;24.160;2023-07-13T07:44:03;99595.44;;;37.44;37.29
26531;BME280;14201;43.188;24.160;2023-07-13T07:46:29;99586.09;;;37.49;34.13
26531;BME280;14201;43.188;24.160;2023-07-13T07:48:56;99585.16;;;37.75;34.59
26531;BME280;14201;43.188;24.160;2023-07-13T07:51:22;99588.06;;;37.72;36.79
26531;BME280;14201;43.188;24.160;2023-07-13T07:53:48;99586.16;;;37.61;33.65
26531;BME280;14201;43.188;24.160;2023-07-13T07:56:13;99579.78;;;38.12;33.04
26531;BME280;14201;43.188;24.160;2023-07-13T07:58:42;99586.47;;;38.32;32.88
26531;BME280;14201;43.188;24.160;2023-07-13T08:01:08;99593.22;;;38.27;33.60
26531;BME280;14201;43.188;24.160;2023-07-13T08:03:33;99582.22;;;38.41;33.97
26531;BME280;14201;43.188;24.160;2023-07-13T08:05:59;99577.34;;;38.33;33.64
26531;BME280;14201;43.188;24.160;2023-07-13T08:08:25;99579.78;;;38.73;33.79
26531;BME280;14201;43.188;24.160;2023-07-13T08:10:51;99580.44;;;39.01;33.63
26531;BME280;14201;43.188;24.160;2023-07-13T08:13:17;99578.22;;;38.82;36.88
26531;BME280;14201;43.188;24.160;2023-07-13T08:15:42;99573.75;;;38.81;34.52
26531;BME280;14201;43.188;24.160;2023-07-13T08:18:08;99581.84;;;39.07;35.59
26531;BME280;14201;43.188;24.160;2023-07-13T08:20:38;99578.13;;;38.95;32.79
26531;BME280;14201;43.188;24.160;2023-07-13T08:23:04;99573.06;;;39.26;33.61
26531;BME280;14201;43.188;24.160;2023-07-13T08:25:29;99574.88;;;39.49;32.70
26531;BME280;14201;43.188;24.160;2023-07-13T08:27:55;99571.56;;;38.86;35.49
26531;BME280;14201;43.188;24.160;2023-07-13T08:30:21;99578.97;;;38.84;37.68
26531;BME280;14201;43.188;24.160;2023-07-13T08:32:46;99581.69;;;39.08;35.76
26531;BME280;14201;43.188;24.160;2023-07-13T08:35:12;99583.94;;;39.03;35.92
26531;BME280;14201;43.188;24.160;2023-07-13T08:37:39;99583.28;;;38.99;32.94
26531;BME280;14201;43.188;24.160;2023-07-13T08:40:05;99594.91;;;39.37;33.72
26531;BME280;14201;43.188;24.160;2023-07-13T08:42:39;99599.09;;;39.65;33.53
26531;BME280;14201;43.188;24.160;2023-07-13T08:45:21;99606.31;;;40.11;33.30
26531;BME280;14201;43.188;24.160;2023-07-13T08:47:55;99579.25;;;39.97;31.06
26531;BME280;14201;43.188;24.160;2023-07-13T08:50:27;99608.19;;;39.06;34.09
26531;BME280;14201;43.188;24.160;2023-07-13T08:52:56;99614.50;;;39.42;33.45
26531;BME280;14201;43.188;24.160;2023-07-13T08:55:27;99618.75;;;39.46;32.47
26531;BME280;14201;43.188;24.160;2023-07-13T08:58:02;99613.38;;;40.03;32.66
26531;BME280;14201;43.188;24.160;2023-07-13T09:03:40;99609.50;;;39.71;34.05
26531;BME280;14201;43.188;24.160;2023-07-13T09:06:10;99608.38;;;40.19;32.23
26531;BME280;14201;43.188;24.160;2023-07-13T09:16:39;99611.63;;;40.13;30.73
26531;BME280;14201;43.188;24.160;2023-07-13T09:19:13;99610.91;;;40.33;31.17
26531;BME280;14201;43.188;24.160;2023-07-13T09:21:42;99608.69;;;40.71;31.42
26531;BME280;14201;43.188;24.160;2023-07-13T09:26:54;99604.16;;;41.25;30.76
26531;BME280;14201;43.188;24.160;2023-07-13T09:29:29;99601.56;;;41.44;30.96
26531;BME280;14201;43.188;24.160;2023-07-13T09:31:58;99608.91;;;41.23;29.05
26531;BME280;14201;43.188;24.160;2023-07-13T09:34:25;99604.47;;;41.52;29.33
26531;BME280;14201;43.188;24.160;2023-07-13T09:36:51;99603.19;;;40.93;30.26
26531;BME280;14201;43.188;24.160;2023-07-13T09:39:27;99595.94;;;40.60;31.14
26531;BME280;14201;43.188;24.160;2023-07-13T09:42:01;99601.34;;;40.71;31.53
26531;BME280;14201;43.188;24.160;2023-07-13T09:47:02;99595.47;;;41.41;30.43
26531;BME280;14201;43.188;24.160;2023-07-13T09:49:34;99599.06;;;41.83;29.25
26531;BME280;14201;43.188;24.160;2023-07-13T09:52:06;99591.19;;;41.06;30.01
26531;BME280;14201;43.188;24.160;2023-07-13T09:54:36;99588.56;;;41.88;30.61
26531;BME280;14201;43.188;24.160;2023-07-13T09:57:08;99591.78;;;41.63;28.97
26531;BME280;14201;43.188;24.160;2023-07-13T09:59:44;99593.81;;;41.49;28.92
26531;BME280;14201;43.188;24.160;2023-07-13T10:02:32;99599.53;;;42.19;28.69
26531;BME280;14201;43.188;24.160;2023-07-13T10:04:59;99592.94;;;41.49;28.32
26531;BME280;14201;43.188;24.160;2023-07-13T10:07:26;99598.03;;;41.00;29.61
26531;BME280;14201;43.188;24.160;2023-07-13T10:09:53;99602.13;;;41.90;28.58
26531;BME280;14201;43.188;24.160;2023-07-13T10:12:20;99603.75;;;41.08;27.96
26531;BME280;14201;43.188;24.160;2023-07-13T10:14:46;99597.69;;;41.68;28.72
26531;BME280;14201;43.188;24.160;2023-07-13T10:17:14;99595.28;;;41.75;27.13
26531;BME280;14201;43.188;24.160;2023-07-13T10:19:41;99587.63;;;40.94;29.33
26531;BME280;14201;43.188;24.160;2023-07-13T10:22:20;99588.41;;;40.85;28.86
26531;BME280;14201;43.188;24.160;2023-07-13T10:24:49;99582.28;;;41.46;30.46
26531;BME280;14201;43.188;24.160;2023-07-13T10:27:22;99572.56;;;42.24;30.62
26531;BME280;14201;43.188;24.160;2023-07-13T10:30:00;99568.28;;;41.18;28.87
26531;BME280;14201;43.188;24.160;2023-07-13T10:32:27;99568.38;;;41.59;30.61
26531;BME280;14201;43.188;24.160;2023-07-13T10:34:53;99567.28;;;41.61;30.30
26531;BME280;14201;43.188;24.160;2023-07-13T10:37:24;99569.50;;;41.77;29.24
26531;BME280;14201;43.188;24.160;2023-07-13T10:39:54;99565.44;;;42.02;29.29
26531;BME280;14201;43.188;24.160;2023-07-13T10:42:44;99565.00;;;42.57;29.34
26531;BME280;14201;43.188;24.160;2023-07-13T10:45:17;99567.22;;;43.12;28.04
26531;BME280;14201;43.188;24.160;2023-07-13T10:47:45;99555.28;;;43.51;26.53
26531;BME280;14201;43.188;24.160;2023-07-13T10:50:20;99559.00;;;43.79;26.49
26531;BME280;14201;43.188;24.160;2023-07-13T10:52:49;99563.44;;;44.17;27.96
26531;BME280;14201;43.188;24.160;2023-07-13T10:55:54;99554.91;;;43.83;27.53
26531;BME280;14201;43.188;24.160;2023-07-13T10:58:23;99551.72;;;42.43;27.94
26531;BME280;14201;43.188;24.160;2023-07-13T11:00:56;99536.47;;;42.00;29.28
26531;BME280;14201;43.188;24.160;2023-07-13T11:03:23;99540.81;;;42.72;27.92
26531;BME280;14201;43.188;24.160;2023-07-13T11:06:15;99535.31;;;42.62;28.74
26531;BME280;14201;43.188;24.160;2023-07-13T11:18:53;99524.22;;;42.83;28.48
26531;BME280;14201;43.188;24.160;2023-07-13T11:21:34;99530.09;;;43.37;27.80
26531;BME280;14201;43.188;24.160;2023-07-13T11:24:13;99533.06;;;43.54;28.50
26531;BME280;14201;43.188;24.160;2023-07-13T11:26:43;99517.56;;;44.00;26.20
26531;BME280;14201;43.188;24.160;2023-07-13T11:29:24;99512.28;;;44.07;25.67
26531;BME280;14201;43.188;24.160;2023-07-13T11:31:56;99497.31;;;43.26;27.78
26531;BME280;14201;43.188;24.160;2023-07-13T11:34:41;99485.22;;;41.61;29.29
26531;BME280;14201;43.188;24.160;2023-07-13T11:37:16;99489.88;;;41.19;29.42
26531;BME280;14201;43.188;24.160;2023-07-13T11:39:44;99483.81;;;41.77;29.67
26531;BME280;14201;43.188;24.160;2023-07-13T11:42:16;99478.47;;;41.75;28.74
26531;BME280;14201;43.188;24.160;2023-07-13T11:44:45;99478.25;;;41.88;28.82
26531;BME280;14201;43.188;24.160;2023-07-13T11:47:14;99464.06;;;41.42;28.85
26531;BME280;14201;43.188;24.160;2023-07-13T11:49:48;99465.69;;;41.24;31.97
26531;BME280;14201;43.188;24.160;2023-07-13T11:52:17;99460.69;;;41.29;29.18
26531;BME280;14201;43.188;24.160;2023-07-13T11:54:50;99456.84;;;41.41;28.01
26531;BME280;14201;43.188;24.160;2023-07-13T11:57:30;99460.06;;;41.87;30.49
26531;BME280;14201;43.188;24.160;2023-07-13T12:00:16;99449.09;;;42.47;27.82
26531;BME280;14201;43.188;24.160;2023-07-13T12:02:48;99448.44;;;43.02;27.09
26531;BME280;14201;43.188;24.160;2023-07-13T12:05:16;99451.22;;;42.63;26.39
26531;BME280;14201;43.188;24.160;2023-07-13T12:07:46;99445.16;;;42.30;26.16
26531;BME280;14201;43.188;24.160;2023-07-13T12:10:27;99447.34;;;41.66;28.57
26531;BME280;14201;43.188;24.160;2023-07-13T12:13:04;99432.47;;;41.19;27.39
26531;BME280;14201;43.188;24.160;2023-07-13T12:15:40;99431.38;;;40.89;28.56
26531;BME280;14201;43.188;24.160;2023-07-13T12:18:19;99428.03;;;40.76;27.51
26531;BME280;14201;43.188;24.160;2023-07-13T12:20:46;99426.22;;;41.17;28.14
26531;BME280;14201;43.188;24.160;2023-07-13T12:23:25;99419.56;;;41.30;27.06
26531;BME280;14201;43.188;24.160;2023-07-13T12:25:53;99423.78;;;41.44;27.21
26531;BME280;14201;43.188;24.160;2023-07-13T12:28:30;99416.13;;;41.38;28.13
26531;BME280;14201;43.188;24.160;2023-07-13T12:31:01;99420.50;;;41.20;26.68
26531;BME280;14201;43.188;24.160;2023-07-13T12:33:29;99420.91;;;41.15;26.80
26531;BME280;14201;43.188;24.160;2023-07-13T12:35:56;99414.91;;;41.21;27.24
26531;BME280;14201;43.188;24.160;2023-07-13T12:38:24;99418.72;;;41.40;29.73
26531;BME280;14201;43.188;24.160;2023-07-13T12:40:52;99415.84;;;41.41;27.04
26531;BME280;14201;43.188;24.160;2023-07-13T12:43:20;99415.28;;;41.78;26.17
26531;BME280;14201;43.188;24.160;2023-07-13T12:45:58;99418.00;;;41.78;28.07
26531;BME280;14201;43.188;24.160;2023-07-13T12:48:24;99409.78;;;41.68;27.46
26531;BME280;14201;43.188;24.160;2023-07-13T12:50:50;99421.75;;;41.77;27.83
26531;BME280;14201;43.188;24.160;2023-07-13T12:53:20;99411.50;;;41.69;27.58
26531;BME280;14201;43.188;24.160;2023-07-13T12:55:52;99410.53;;;42.00;27.36
26531;BME280;14201;43.188;24.160;2023-07-13T12:58:26;99417.50;;;42.33;28.52
26531;BME280;14201;43.188;24.160;2023-07-13T13:00:55;99418.97;;;42.47;26.60
26531;BME280;14201;43.188;24.160;2023-07-13T13:03:34;99418.97;;;42.47;26.88
26531;BME280;14201;43.188;24.160;2023-07-13T13:08:45;99397.84;;;41.79;29.15
26531;BME280;14201;43.188;24.160;2023-07-13T13:11:11;99398.16;;;41.86;28.36
26531;BME280;14201;43.188;24.160;2023-07-13T13:13:36;99390.09;;;41.44;27.87
26531;BME280;14201;43.188;24.160;2023-07-13T13:16:10;99400.13;;;41.84;29.51
26531;BME280;14201;43.188;24.160;2023-07-13T13:18:37;99389.38;;;41.42;29.02
26531;BME280;14201;43.188;24.160;2023-07-13T13:21:03;99382.72;;;41.35;26.29
26531;BME280;14201;43.188;24.160;2023-07-13T13:23:28;99394.00;;;40.68;28.10
26531;BME280;14201;43.188;24.160;2023-07-13T13:25:54;99390.47;;;40.57;28.82